sensor_id;sensor_type;location;lat;lon;timestamp;pressure;altitude;pressure_sealevel;temperature;humidity
11808;BME280;5961;42.640;23.380;2024-01-15T00:00:51;93429.34;;;0.97;73.99
11808;BME280;5961;42.640;23.380;2024-01-15T00:03:18;93424.13;;;0.97;74.14
11808;BME280;5961;42.640;23.380;2024-01-15T00:05:45;93422.66;;;0.91;74.57
11808;BME280;5961;42.640;23.380;2024-01-15T00:08:11;93392.75;;;0.65;74.16
11808;BME280;5961;42.640;23.380;2024-01-15T00:10:38;93417.59;;;0.81;73.51
11808;BME280;5961;42.640;23.380;2024-01-15T00:13:07;93414.16;;;0.67;73.76
11808;BME280;5961;42.640;23.380;2024-01-15T00:15:33;93412.63;;;0.66;73.33
11808;BME280;5961;42.640;23.380;2024-01-15T00:18:00;93405.81;;;0.65;73.59
11808;BME280;5961;42.640;23.380;2024-01-15T00:20:27;93412.31;;;0.67;73.38
11808;BME280;5961;42.640;23.380;2024-01-15T00:22:53;93421.38;;;0.75;72.90
11808;BME280;5961;42.640;23.380;2024-01-15T00:25:20;93406.63;;;0.79;74.69
11808;BME280;5961;42.640;23.380;2024-01-15T00:27:47;93411.38;;;0.77;74.21
11808;BME280;5961;42.640;23.380;2024-01-15T00:30:15;93414.47;;;0.79;74.37
11808;BME280;5961;42.640;23.380;2024-01-15T00:32:41;93415.56;;;0.78;74.32
11808;BME280;5961;42.640;23.380;2024-01-15T00:35:08;93419.13;;;0.82;74.58
11808;BME280;5961;42.640;23.380;2024-01-15T00:37:35;93426.03;;;0.78;74.60
11808;BME280;5961;42.640;23.380;2024-01-15T00:40:02;93420.22;;;0.81;74.82
11808;BME280;5961;42.640;23.380;2024-01-15T00:42:28;93415.06;;;0.76;74.42
11808;BME280;5961;42.640;23.380;2024-01-15T00:44:55;93404.47;;;0.67;74.77
11808;BME280;5961;42.640;23.380;2024-01-15T00:47:23;93416.63;;;0.77;75.54
11808;BME280;5961;42.640;23.380;2024-01-15T00:49:50;93409.34;;;0.74;75.24
11808;BME280;5961;42.640;23.380;2024-01-15T00:52:16;93415.94;;;0.71;75.99
11808;BME280;5961;42.640;23.380;2024-01-15T00:54:43;93401.84;;;0.67;75.84
11808;BME280;5961;42.640;23.380;2024-01-15T00:57:09;93412.63;;;0.66;76.43
11808;BME280;5961;42.640;23.380;2024-01-15T00:59:36;93401.16;;;0.62;75.64
11808;BME280;5961;42.640;23.380;2024-01-15T01:02:03;93415.28;;;0.61;75.47
11808;BME280;5961;42.640;23.380;2024-01-15T01:04:31;93409.88;;;0.57;75.86
11808;BME280;5961;42.640;23.380;2024-01-15T01:06:58;93408.97;;;0.48;76.52
11808;BME280;5961;42.640;23.380;2024-01-15T01:09:24;93408.69;;;0.49;77.43
11808;BME280;5961;42.640;23.380;2024-01-15T01:11:54;93392.22;;;0.49;77.74
11808;BME280;5961;42.640;23.380;2024-01-15T01:14:21;93405.97;;;0.54;77.92
11808;BME280;5961;42.640;23.380;2024-01-15T01:16:47;93407.06;;;0.53;78.09
11808;BME280;5961;42.640;23.380;2024-01-15T01:19:14;93411.78;;;0.51;78.02
11808;BME280;5961;42.640;23.380;2024-01-15T01:21:43;93400.13;;;0.44;78.36
11808;BME280;5961;42.640;23.380;2024-01-15T01:24:09;93406.63;;;0.46;77.29
11808;BME280;5961;42.640;23.380;2024-01-15T01:26:36;93391.03;;;0.41;77.56
11808;BME280;5961;42.640;23.380;2024-01-15T01:29:03;93398.31;;;0.44;77.56
11808;BME280;5961;42.640;23.380;2024-01-15T01:31:29;93390.94;;;0.46;77.45
11808;BME280;5961;42.640;23.380;2024-01-15T01:36:27;93274.50;;;-0.29;76.93
11808;BME280;5961;42.640;23.380;2024-01-15T01:38:55;93384.31;;;0.35;77.49
11808;BME280;5961;42.640;23.380;2024-01-15T01:41:21;93393.78;;;0.31;77.94
11808;BME280;5961;42.640;23.380;2024-01-15T01:43:49;93387.50;;;0.32;78.44
11808;BME280;5961;42.640;23.380;2024-01-15T01:46:16;93397.75;;;0.29;79.49
11808;BME280;5961;42.640;23.380;2024-01-15T01:48:43;93373.97;;;0.12;79.17
11808;BME280;5961;42.640;23.380;2024-01-15T01:51:11;93392.81;;;0.09;79.26
11808;BME280;5961;42.640;23.380;2024-01-15T01:53:37;93390.00;;;0.05;79.23
11808;BME280;5961;42.640;23.380;2024-01-15T01:56:06;93381.72;;;-0.02;79.50
11808;BME280;5961;42.640;23.380;2024-01-15T01:58:33;93344.31;;;-0.16;78.39
11808;BME280;5961;42.640;23.380;2024-01-15T02:01:00;93381.94;;;0.02;78.49
11808;BME280;5961;42.640;23.380;2024-01-15T02:03:27;93368.38;;;-0.01;78.26
11808;BME280;5961;42.640;23.380;2024-01-15T02:05:55;93366.47;;;0.05;78.21
11808;BME280;5961;42.640;23.380;2024-01-15T02:08:22;93369.16;;;0.00;78.82
11808;BME280;5961;42.640;23.380;2024-01-15T02:10:48;93372.34;;;-0.03;78.16
11808;BME280;5961;42.640;23.380;2024-01-15T02:13:17;93368.09;;;0.01;78.47
11808;BME280;5961;42.640;23.380;2024-01-15T02:15:44;93340.09;;;-0.12;78.10
11808;BME280;5961;42.640;23.380;2024-01-15T02:18:10;93359.06;;;-0.07;78.01
11808;BME280;5961;42.640;23.380;2024-01-15T02:20:37;93346.78;;;-0.06;77.67
11808;BME280;5961;42.640;23.380;2024-01-15T02:23:09;93332.03;;;-0.16;78.56
11808;BME280;5961;42.640;23.380;2024-01-15T02:25:37;93339.66;;;-0.19;78.86
11808;BME280;5961;42.640;23.380;2024-01-15T02:28:06;93340.69;;;-0.20;78.95
11808;BME280;5961;42.640;23.380;2024-01-15T02:30:34;93332.25;;;-0.12;79.21
11808;BME280;5961;42.640;23.380;2024-01-15T02:33:03;93310.28;;;-0.11;78.46
11808;BME280;5961;42.640;23.380;2024-01-15T02:35:30;93289.75;;;-0.18;78.51
11808;BME280;5961;42.640;23.380;2024-01-15T02:37:56;93300.50;;;-0.19;78.99
11808;BME280;5961;42.640;23.380;2024-01-15T02:40:24;93298.00;;;-0.29;78.69
11808;BME280;5961;42.640;23.380;2024-01-15T02:42:51;93299.44;;;-0.37;79.16
11808;BME280;5961;42.640;23.380;2024-01-15T02:45:17;93301.25;;;-0.37;79.86
11808;BME280;5961;42.640;23.380;2024-01-15T02:47:44;93283.19;;;-0.52;79.76
11808;BME280;5961;42.640;23.380;2024-01-15T02:50:11;93301.91;;;-0.45;79.71
11808;BME280;5961;42.640;23.380;2024-01-15T02:52:37;93288.34;;;-0.47;80.30
11808;BME280;5961;42.640;23.380;2024-01-15T02:55:05;93296.25;;;-0.52;80.46
11808;BME280;5961;42.640;23.380;2024-01-15T02:57:33;93292.78;;;-0.67;80.72
11808;BME280;5961;42.640;23.380;2024-01-15T02:59:59;93301.19;;;-0.70;81.08
11808;BME280;5961;42.640;23.380;2024-01-15T03:02:26;93283.81;;;-0.79;82.00
11808;BME280;5961;42.640;23.380;2024-01-15T03:04:53;93284.63;;;-0.84;81.97
11808;BME280;5961;42.640;23.380;2024-01-15T03:07:19;93289.81;;;-0.79;81.72
11808;BME280;5961;42.640;23.380;2024-01-15T03:09:46;93278.81;;;-0.76;81.40
11808;BME280;5961;42.640;23.380;2024-01-15T03:12:13;93289.75;;;-0.55;80.87
11808;BME280;5961;42.640;23.380;2024-01-15T03:14:41;93289.25;;;-0.38;80.77
11808;BME280;5961;42.640;23.380;2024-01-15T03:17:07;93294.34;;;-0.28;80.30
11808;BME280;5961;42.640;23.380;2024-01-15T03:19:35;93288.56;;;-0.25;80.23
11808;BME280;5961;42.640;23.380;2024-01-15T03:22:02;93281.06;;;-0.13;79.96
11808;BME280;5961;42.640;23.380;2024-01-15T03:24:29;93299.28;;;-0.08;79.35
11808;BME280;5961;42.640;23.380;2024-01-15T03:26:55;93293.09;;;-0.12;79.96
11808;BME280;5961;42.640;23.380;2024-01-15T03:29:23;93278.00;;;-0.15;80.64
11808;BME280;5961;42.640;23.380;2024-01-15T03:31:51;93268.69;;;-0.21;80.46
11808;BME280;5961;42.640;23.380;2024-01-15T03:34:18;93275.44;;;-0.20;80.40
11808;BME280;5961;42.640;23.380;2024-01-15T03:36:44;93261.97;;;-0.27;80.14
11808;BME280;5961;42.640;23.380;2024-01-15T03:39:11;93265.34;;;-0.27;80.89
11808;BME280;5961;42.640;23.380;2024-01-15T03:41:38;93243.50;;;-0.31;80.57
11808;BME280;5961;42.640;23.380;2024-01-15T03:44:04;93283.00;;;-0.37;81.79
11808;BME280;5961;42.640;23.380;2024-01-15T03:46:31;93248.22;;;-0.51;81.26
11808;BME280;5961;42.640;23.380;2024-01-15T03:48:59;93246.28;;;-0.83;83.40
11808;BME280;5961;42.640;23.380;2024-01-15T03:51:26;93268.50;;;-0.86;83.47
11808;BME280;5961;42.640;23.380;2024-01-15T03:53:53;93259.47;;;-0.75;83.87
11808;BME280;5961;42.640;23.380;2024-01-15T03:56:19;93262.94;;;-0.79;83.64
11808;BME280;5961;42.640;23.380;2024-01-15T03:58:46;93276.59;;;-0.87;84.21
11808;BME280;5961;42.640;23.380;2024-01-15T04:01:13;93263.84;;;-0.89;84.90
11808;BME280;5961;42.640;23.380;2024-01-15T04:03:39;93280.41;;;-0.80;84.54
11808;BME280;5961;42.640;23.380;2024-01-15T04:06:07;93264.28;;;-0.82;84.71
11808;BME280;5961;42.640;23.380;2024-01-15T04:08:34;93259.81;;;-0.81;85.22
11808;BME280;5961;42.640;23.380;2024-01-15T04:11:01;93250.13;;;-0.76;84.86
11808;BME280;5961;42.640;23.380;2024-01-15T04:13:27;93238.75;;;-0.66;83.37
11808;BME280;5961;42.640;23.380;2024-01-15T04:15:54;93240.03;;;-0.64;82.93
11808;BME280;5961;42.640;23.380;2024-01-15T04:18:27;93241.78;;;-0.59;83.57
11808;BME280;5961;42.640;23.380;2024-01-15T04:20:53;93239.41;;;-0.56;83.21
11808;BME280;5961;42.640;23.380;2024-01-15T04:23:22;93236.78;;;-0.56;82.22
11808;BME280;5961;42.640;23.380;2024-01-15T04:25:48;93243.97;;;-0.47;83.47
11808;BME280;5961;42.640;23.380;2024-01-15T04:28:15;93241.44;;;-0.52;83.18
11808;BME280;5961;42.640;23.380;2024-01-15T04:30:42;93261.41;;;-0.43;83.62
11808;BME280;5961;42.640;23.380;2024-01-15T04:33:08;93251.25;;;-0.44;83.20
11808;BME280;5961;42.640;23.380;2024-01-15T04:35:35;93253.94;;;-0.49;83.80
11808;BME280;5961;42.640;23.380;2024-01-15T04:38:02;93258.84;;;-0.48;83.38
11808;BME280;5961;42.640;23.380;2024-01-15T04:40:30;93253.94;;;-0.49;83.48
11808;BME280;5961;42.640;23.380;2024-01-15T04:42:56;93265.50;;;-0.56;82.73
11808;BME280;5961;42.640;23.380;2024-01-15T04:45:23;93251.66;;;-0.56;82.88
11808;BME280;5961;42.640;23.380;2024-01-15T04:47:53;93247.22;;;-0.56;82.64
11808;BME280;5961;42.640;23.380;2024-01-15T04:50:21;93234.75;;;-0.59;83.06
11808;BME280;5961;42.640;23.380;2024-01-15T04:52:47;93234.66;;;-0.53;83.36
11808;BME280;5961;42.640;23.380;2024-01-15T04:55:14;93204.56;;;-0.83;83.09
11808;BME280;5961;42.640;23.380;2024-01-15T04:57:42;93233.88;;;-0.54;83.37
11808;BME280;5961;42.640;23.380;2024-01-15T05:00:10;93231.34;;;-0.59;82.72
11808;BME280;5961;42.640;23.380;2024-01-15T05:02:37;93233.13;;;-0.54;82.54
11808;BME280;5961;42.640;23.380;2024-01-15T05:05:04;93228.25;;;-0.61;83.13
11808;BME280;5961;42.640;23.380;2024-01-15T05:07:30;93229.53;;;-0.59;83.50
11808;BME280;5961;42.640;23.380;2024-01-15T05:09:57;93227.47;;;-0.62;83.94
11808;BME280;5961;42.640;23.380;2024-01-15T05:12:24;93230.72;;;-0.70;84.40
11808;BME280;5961;42.640;23.380;2024-01-15T05:14:52;93206.69;;;-0.67;84.34
11808;BME280;5961;42.640;23.380;2024-01-15T05:17:18;93203.53;;;-0.64;84.21
11808;BME280;5961;42.640;23.380;2024-01-15T05:19:45;93192.88;;;-0.67;84.82
11808;BME280;5961;42.640;23.380;2024-01-15T05:22:12;93210.91;;;-0.89;86.01
11808;BME280;5961;42.640;23.380;2024-01-15T05:24:38;93200.34;;;-0.79;85.51
11808;BME280;5961;42.640;23.380;2024-01-15T05:27:05;93205.03;;;-0.81;85.27
11808;BME280;5961;42.640;23.380;2024-01-15T05:29:32;93210.84;;;-1.03;85.86
11808;BME280;5961;42.640;23.380;2024-01-15T05:32:00;93202.59;;;-0.91;86.48
11808;BME280;5961;42.640;23.380;2024-01-15T05:34:26;93194.34;;;-0.80;86.85
11808;BME280;5961;42.640;23.380;2024-01-15T05:36:53;93192.22;;;-0.78;85.32
11808;BME280;5961;42.640;23.380;2024-01-15T05:39:19;93192.44;;;-0.74;85.75
11808;BME280;5961;42.640;23.380;2024-01-15T05:41:46;93217.19;;;-0.72;85.89
11808;BME280;5961;42.640;23.380;2024-01-15T05:44:13;93196.16;;;-0.62;86.04
11808;BME280;5961;42.640;23.380;2024-01-15T05:46:39;93208.16;;;-0.61;84.90
11808;BME280;5961;42.640;23.380;2024-01-15T05:49:07;93196.66;;;-0.60;84.73
11808;BME280;5961;42.640;23.380;2024-01-15T05:51:34;93187.44;;;-0.52;84.29
11808;BME280;5961;42.640;23.380;2024-01-15T05:54:01;93199.13;;;-0.49;83.85
11808;BME280;5961;42.640;23.380;2024-01-15T05:56:27;93189.81;;;-0.56;84.02
11808;BME280;5961;42.640;23.380;2024-01-15T05:58:54;93183.56;;;-0.54;83.75
11808;BME280;5961;42.640;23.380;2024-01-15T06:01:21;93187.47;;;-0.57;83.59
11808;BME280;5961;42.640;23.380;2024-01-15T06:03:47;93198.22;;;-0.59;83.77
11808;BME280;5961;42.640;23.380;2024-01-15T06:06:14;93206.13;;;-0.64;84.39
11808;BME280;5961;42.640;23.380;2024-01-15T06:08:41;93207.97;;;-0.64;84.60
11808;BME280;5961;42.640;23.380;2024-01-15T06:11:08;93206.25;;;-0.74;85.00
11808;BME280;5961;42.640;23.380;2024-01-15T06:13:34;93208.88;;;-0.74;84.70
11808;BME280;5961;42.640;23.380;2024-01-15T06:16:01;93203.09;;;-0.71;84.73
11808;BME280;5961;42.640;23.380;2024-01-15T06:18:27;93195.97;;;-0.65;85.05
11808;BME280;5961;42.640;23.380;2024-01-15T06:20:54;93194.63;;;-0.63;85.40
11808;BME280;5961;42.640;23.380;2024-01-15T06:23:22;93190.94;;;-0.62;84.40
11808;BME280;5961;42.640;23.380;2024-01-15T06:25:49;93198.44;;;-0.74;85.26
11808;BME280;5961;42.640;23.380;2024-01-15T06:28:15;93190.75;;;-0.65;85.60
11808;BME280;5961;42.640;23.380;2024-01-15T06:30:42;93184.25;;;-0.68;85.28
11808;BME280;5961;42.640;23.380;2024-01-15T06:33:09;93182.66;;;-0.64;85.37
11808;BME280;5961;42.640;23.380;2024-01-15T06:35:35;93194.22;;;-0.70;85.80
11808;BME280;5961;42.640;23.380;2024-01-15T06:38:02;93201.47;;;-0.67;86.50
11808;BME280;5961;42.640;23.380;2024-01-15T06:40:30;93190.75;;;-0.65;86.36
11808;BME280;5961;42.640;23.380;2024-01-15T06:42:57;93190.69;;;-0.79;87.73
11808;BME280;5961;42.640;23.380;2024-01-15T06:45:23;93197.94;;;-0.76;87.64
11808;BME280;5961;42.640;23.380;2024-01-15T06:47:50;93186.38;;;-0.70;87.47
11808;BME280;5961;42.640;23.380;2024-01-15T06:50:17;93188.00;;;-0.74;86.92
11808;BME280;5961;42.640;23.380;2024-01-15T06:52:43;93201.31;;;-0.75;86.55
11808;BME280;5961;42.640;23.380;2024-01-15T06:55:10;93179.25;;;-0.83;86.79
11808;BME280;5961;42.640;23.380;2024-01-15T06:57:38;93186.44;;;-0.75;86.78
11808;BME280;5961;42.640;23.380;2024-01-15T07:00:06;93197.53;;;-0.64;86.16
11808;BME280;5961;42.640;23.380;2024-01-15T07:02:33;93198.31;;;-0.64;86.56
11808;BME280;5961;42.640;23.380;2024-01-15T07:05:00;93200.34;;;-0.61;86.82
11808;BME280;5961;42.640;23.380;2024-01-15T07:07:27;93218.44;;;-0.50;85.62
11808;BME280;5961;42.640;23.380;2024-01-15T07:09:55;93219.44;;;-0.46;86.06
11808;BME280;5961;42.640;23.380;2024-01-15T07:12:21;93207.44;;;-0.47;86.22
11808;BME280;5961;42.640;23.380;2024-01-15T07:14:50;93208.00;;;-0.50;85.98
11808;BME280;5961;42.640;23.380;2024-01-15T07:17:16;93210.25;;;-0.63;87.25
11808;BME280;5961;42.640;23.380;2024-01-15T07:19:46;93221.69;;;-0.59;87.45
11808;BME280;5961;42.640;23.380;2024-01-15T07:22:13;93213.00;;;-0.54;87.45
11808;BME280;5961;42.640;23.380;2024-01-15T07:24:40;93210.34;;;-0.49;87.33
11808;BME280;5961;42.640;23.380;2024-01-15T07:27:07;93211.25;;;-0.59;87.94
11808;BME280;5961;42.640;23.380;2024-01-15T07:29:34;93208.22;;;-0.66;88.96
11808;BME280;5961;42.640;23.380;2024-01-15T07:32:04;93185.16;;;-0.77;89.61
11808;BME280;5961;42.640;23.380;2024-01-15T07:34:33;93192.78;;;-0.81;90.58
11808;BME280;5961;42.640;23.380;2024-01-15T07:36:59;93195.03;;;-0.93;91.44
11808;BME280;5961;42.640;23.380;2024-01-15T07:39:26;93182.28;;;-0.94;91.81
11808;BME280;5961;42.640;23.380;2024-01-15T07:41:54;93201.16;;;-1.02;93.12
11808;BME280;5961;42.640;23.380;2024-01-15T07:44:21;93193.31;;;-1.02;93.08
11808;BME280;5961;42.640;23.380;2024-01-15T07:46:48;93191.00;;;-1.23;92.91
11808;BME280;5961;42.640;23.380;2024-01-15T07:49:16;93202.69;;;-1.20;92.47
11808;BME280;5961;42.640;23.380;2024-01-15T07:51:43;93200.59;;;-1.18;93.35
11808;BME280;5961;42.640;23.380;2024-01-15T07:54:10;93234.19;;;-1.40;95.12
11808;BME280;5961;42.640;23.380;2024-01-15T07:56:52;93150.09;;;-1.46;95.50
11808;BME280;5961;42.640;23.380;2024-01-15T07:59:19;93224.44;;;-1.30;95.45
11808;BME280;5961;42.640;23.380;2024-01-15T08:01:46;93193.44;;;-1.31;93.92
11808;BME280;5961;42.640;23.380;2024-01-15T08:04:12;93201.06;;;-1.16;92.81
11808;BME280;5961;42.640;23.380;2024-01-15T08:06:40;93204.13;;;-1.09;92.35
11808;BME280;5961;42.640;23.380;2024-01-15T08:09:07;93155.78;;;-1.01;91.32
11808;BME280;5961;42.640;23.380;2024-01-15T08:11:34;93182.56;;;-0.96;90.65
11808;BME280;5961;42.640;23.380;2024-01-15T08:14:01;93196.13;;;-0.94;90.23
11808;BME280;5961;42.640;23.380;2024-01-15T08:16:27;93187.09;;;-0.83;89.40
11808;BME280;5961;42.640;23.380;2024-01-15T08:18:54;93190.81;;;-0.89;88.57
11808;BME280;5961;42.640;23.380;2024-01-15T08:21:21;93191.66;;;-0.75;89.79
11808;BME280;5961;42.640;23.380;2024-01-15T08:23:50;93199.78;;;-0.76;91.32
11808;BME280;5961;42.640;23.380;2024-01-15T08:26:17;93203.72;;;-0.79;91.35
11808;BME280;5961;42.640;23.380;2024-01-15T08:28:43;93208.38;;;-0.76;90.07
11808;BME280;5961;42.640;23.380;2024-01-15T08:31:10;93182.13;;;-0.66;89.19
11808;BME280;5961;42.640;23.380;2024-01-15T08:33:37;93197.72;;;-0.61;88.16
11808;BME280;5961;42.640;23.380;2024-01-15T08:36:04;93210.13;;;-0.52;88.37
11808;BME280;5961;42.640;23.380;2024-01-15T08:38:31;93181.75;;;-0.40;87.19
11808;BME280;5961;42.640;23.380;2024-01-15T08:40:59;93197.22;;;-0.44;87.04
11808;BME280;5961;42.640;23.380;2024-01-15T08:43:25;93162.84;;;-0.32;86.43
11808;BME280;5961;42.640;23.380;2024-01-15T08:45:52;93193.09;;;-0.31;86.44
11808;BME280;5961;42.640;23.380;2024-01-15T08:48:19;93161.22;;;-0.15;87.15
11808;BME280;5961;42.640;23.380;2024-01-15T08:50:46;93197.28;;;0.02;86.52
11808;BME280;5961;42.640;23.380;2024-01-15T08:53:12;93142.78;;;0.09;85.96
11808;BME280;5961;42.640;23.380;2024-01-15T08:55:40;93166.63;;;0.21;85.54
11808;BME280;5961;42.640;23.380;2024-01-15T08:58:09;93165.28;;;0.37;84.72
11808;BME280;5961;42.640;23.380;2024-01-15T09:00:35;93185.44;;;0.50;84.88
11808;BME280;5961;42.640;23.380;2024-01-15T09:03:02;93178.06;;;0.52;82.62
11808;BME280;5961;42.640;23.380;2024-01-15T09:05:29;93167.41;;;0.63;81.90
11808;BME280;5961;42.640;23.380;2024-01-15T09:07:56;93153.66;;;0.71;82.01
11808;BME280;5961;42.640;23.380;2024-01-15T09:10:22;93149.41;;;0.75;80.56
11808;BME280;5961;42.640;23.380;2024-01-15T09:12:49;93134.56;;;0.84;81.56
11808;BME280;5961;42.640;23.380;2024-01-15T09:15:17;93103.31;;;0.65;81.53
11808;BME280;5961;42.640;23.380;2024-01-15T09:17:45;93120.91;;;0.73;81.36
11808;BME280;5961;42.640;23.380;2024-01-15T09:20:12;93094.97;;;0.77;82.04
11808;BME280;5961;42.640;23.380;2024-01-15T09:22:39;93094.41;;;0.52;84.13
11808;BME280;5961;42.640;23.380;2024-01-15T09:25:07;93070.56;;;0.68;87.13
11808;BME280;5961;42.640;23.380;2024-01-15T09:27:34;93081.63;;;0.65;89.07
11808;BME280;5961;42.640;23.380;2024-01-15T09:30:01;93063.44;;;0.60;89.57
11808;BME280;5961;42.640;23.380;2024-01-15T09:32:30;93084.44;;;0.54;88.88
11808;BME280;5961;42.640;23.380;2024-01-15T09:34:58;93087.63;;;0.51;88.96
11808;BME280;5961;42.640;23.380;2024-01-15T09:37:24;93063.25;;;0.42;88.77
11808;BME280;5961;42.640;23.380;2024-01-15T09:39:51;93080.31;;;0.26;89.10
11808;BME280;5961;42.640;23.380;2024-01-15T09:42:19;93062.97;;;0.30;88.75
11808;BME280;5961;42.640;23.380;2024-01-15T09:44:47;93076.84;;;0.17;89.34
11808;BME280;5961;42.640;23.380;2024-01-15T09:47:15;93077.97;;;0.25;88.99
11808;BME280;5961;42.640;23.380;2024-01-15T09:49:43;93054.97;;;0.27;89.40
11808;BME280;5961;42.640;23.380;2024-01-15T09:52:11;93049.91;;;0.30;88.73
11808;BME280;5961;42.640;23.380;2024-01-15T09:54:38;93028.84;;;0.27;89.42
11808;BME280;5961;42.640;23.380;2024-01-15T09:57:05;93028.84;;;0.27;89.77
11808;BME280;5961;42.640;23.380;2024-01-15T09:59:33;93028.63;;;0.23;89.60
11808;BME280;5961;42.640;23.380;2024-01-15T10:02:01;93011.78;;;0.29;89.50
11808;BME280;5961;42.640;23.380;2024-01-15T10:04:28;93033.75;;;0.42;88.93
11808;BME280;5961;42.640;23.380;2024-01-15T10:06:57;93009.53;;;0.36;88.51
11808;BME280;5961;42.640;23.380;2024-01-15T10:09:27;93020.88;;;0.32;87.14
11808;BME280;5961;42.640;23.380;2024-01-15T10:14:27;92999.97;;;0.32;86.90
11808;BME280;5961;42.640;23.380;2024-01-15T10:16:53;93025.06;;;0.33;87.25
11808;BME280;5961;42.640;23.380;2024-01-15T10:19:20;93016.06;;;0.25;85.32
11808;BME280;5961;42.640;23.380;2024-01-15T10:21:47;92994.44;;;0.33;84.82
11808;BME280;5961;42.640;23.380;2024-01-15T10:24:15;93008.88;;;0.44;84.77
11808;BME280;5961;42.640;23.380;2024-01-15T10:26:42;92989.47;;;0.45;84.97
11808;BME280;5961;42.640;23.380;2024-01-15T10:29:09;93000.31;;;0.52;84.26
11808;BME280;5961;42.640;23.380;2024-01-15T10:31:37;92999.31;;;0.62;84.11
11808;BME280;5961;42.640;23.380;2024-01-15T10:34:10;92971.81;;;0.65;84.07
11808;BME280;5961;42.640;23.380;2024-01-15T10:36:39;92970.84;;;0.61;84.40
11808;BME280;5961;42.640;23.380;2024-01-15T10:39:06;92972.97;;;0.72;84.59
11808;BME280;5961;42.640;23.380;2024-01-15T10:41:35;92950.13;;;0.64;84.23
11808;BME280;5961;42.640;23.380;2024-01-15T10:44:02;92985.50;;;0.84;84.20
11808;BME280;5961;42.640;23.380;2024-01-15T10:46:28;92995.38;;;0.87;83.40
11808;BME280;5961;42.640;23.380;2024-01-15T10:48:56;92970.91;;;0.91;82.74
11808;BME280;5961;42.640;23.380;2024-01-15T10:51:23;92969.56;;;0.94;81.31
11808;BME280;5961;42.640;23.380;2024-01-15T10:53:52;92980.38;;;1.01;80.96
11808;BME280;5961;42.640;23.380;2024-01-15T10:56:20;92969.63;;;1.02;80.35
11808;BME280;5961;42.640;23.380;2024-01-15T10:58:49;92977.94;;;1.04;80.79
11808;BME280;5961;42.640;23.380;2024-01-15T11:01:17;92952.56;;;1.05;80.43
11808;BME280;5961;42.640;23.380;2024-01-15T11:03:45;92955.81;;;0.88;80.58
11808;BME280;5961;42.640;23.380;2024-01-15T11:06:18;92940.41;;;1.09;80.30
11808;BME280;5961;42.640;23.380;2024-01-15T11:08:48;92961.19;;;1.05;80.36
11808;BME280;5961;42.640;23.380;2024-01-15T11:11:16;92952.66;;;1.00;80.08
11808;BME280;5961;42.640;23.380;2024-01-15T11:13:43;92953.97;;;1.11;80.03
11808;BME280;5961;42.640;23.380;2024-01-15T11:16:13;92934.94;;;1.19;79.93
11808;BME280;5961;42.640;23.380;2024-01-15T11:18:41;92938.50;;;1.23;80.13
11808;BME280;5961;42.640;23.380;2024-01-15T11:21:21;92901.34;;;1.13;79.91
11808;BME280;5961;42.640;23.380;2024-01-15T11:23:50;92953.03;;;1.38;79.28
11808;BME280;5961;42.640;23.380;2024-01-15T11:26:35;92909.34;;;1.47;78.99
11808;BME280;5961;42.640;23.380;2024-01-15T11:29:03;92939.22;;;1.54;78.75
11808;BME280;5961;42.640;23.380;2024-01-15T11:31:59;92934.78;;;1.55;78.16
11808;BME280;5961;42.640;23.380;2024-01-15T11:34:58;92940.97;;;1.67;78.29
11808;BME280;5961;42.640;23.380;2024-01-15T11:37:28;92935.00;;;1.76;78.04
11808;BME280;5961;42.640;23.380;2024-01-15T11:39:56;92917.00;;;1.83;77.85
11808;BME280;5961;42.640;23.380;2024-01-15T11:42:27;92924.44;;;1.98;77.34
11808;BME280;5961;42.640;23.380;2024-01-15T11:44:53;92921.03;;;2.06;77.23
11808;BME280;5961;42.640;23.380;2024-01-15T11:47:44;92892.25;;;2.14;77.15
11808;BME280;5961;42.640;23.380;2024-01-15T11:50:18;92944.94;;;1.96;78.01
11808;BME280;5961;42.640;23.380;2024-01-15T11:52:50;92911.50;;;2.10;77.79
11808;BME280;5961;42.640;23.380;2024-01-15T11:55:25;92910.59;;;2.23;79.58
11808;BME280;5961;42.640;23.380;2024-01-15T11:57:54;92897.00;;;2.12;79.10
11808;BME280;5961;42.640;23.380;2024-01-15T12:00:22;92917.22;;;2.29;79.00
11808;BME280;5961;42.640;23.380;2024-01-15T12:02:50;92888.56;;;2.41;78.68
11808;BME280;5961;42.640;23.380;2024-01-15T12:05:18;92911.53;;;2.44;78.22
11808;BME280;5961;42.640;23.380;2024-01-15T12:07:46;92886.22;;;2.48;78.26
11808;BME280;5961;42.640;23.380;2024-01-15T12:10:15;92927.09;;;2.49;78.48
11808;BME280;5961;42.640;23.380;2024-01-15T12:12:53;92880.84;;;2.53;78.44
11808;BME280;5961;42.640;23.380;2024-01-15T12:15:21;92868.75;;;2.69;78.40
11808;BME280;5961;42.640;23.380;2024-01-15T12:17:49;92878.78;;;2.76;78.24
11808;BME280;5961;42.640;23.380;2024-01-15T12:20:17;92884.34;;;2.83;77.27
11808;BME280;5961;42.640;23.380;2024-01-15T12:22:44;92865.78;;;2.97;77.30
11808;BME280;5961;42.640;23.380;2024-01-15T12:25:11;92857.47;;;2.95;76.96
11808;BME280;5961;42.640;23.380;2024-01-15T12:27:38;92880.72;;;3.13;76.87
11808;BME280;5961;42.640;23.380;2024-01-15T12:30:05;92879.31;;;3.16;77.29
11808;BME280;5961;42.640;23.380;2024-01-15T12:32:34;92880.50;;;3.27;76.64
11808;BME280;5961;42.640;23.380;2024-01-15T12:35:03;92884.91;;;3.52;76.35
11808;BME280;5961;42.640;23.380;2024-01-15T12:37:30;92871.72;;;3.61;75.68
11808;BME280;5961;42.640;23.380;2024-01-15T12:39:58;92878.94;;;3.72;74.90
11808;BME280;5961;42.640;23.380;2024-01-15T12:42:25;92866.06;;;3.79;74.84
11808;BME280;5961;42.640;23.380;2024-01-15T12:44:52;92865.28;;;3.79;74.70
11808;BME280;5961;42.640;23.380;2024-01-15T12:47:19;92873.13;;;3.58;75.37
11808;BME280;5961;42.640;23.380;2024-01-15T12:49:46;92855.97;;;3.61;75.57
11808;BME280;5961;42.640;23.380;2024-01-15T12:52:19;92848.72;;;3.58;75.22
11808;BME280;5961;42.640;23.380;2024-01-15T12:54:46;92873.31;;;3.53;75.80
11808;BME280;5961;42.640;23.380;2024-01-15T12:57:13;92836.06;;;3.51;75.83
11808;BME280;5961;42.640;23.380;2024-01-15T12:59:40;92859.84;;;3.55;75.99
11808;BME280;5961;42.640;23.380;2024-01-15T13:02:06;92876.06;;;3.57;75.54
11808;BME280;5961;42.640;23.380;2024-01-15T13:04:33;92807.66;;;3.53;75.62
11808;BME280;5961;42.640;23.380;2024-01-15T13:07:00;92852.31;;;3.53;76.30
11808;BME280;5961;42.640;23.380;2024-01-15T13:09:28;92837.63;;;3.52;76.67
11808;BME280;5961;42.640;23.380;2024-01-15T13:11:55;92820.91;;;3.57;76.01